Time;durP1;ratioP1;P1;durP2;ratioP2;P2;SDS_P1;SDS_P2;PMS_P1;PMS_P2;Temp;Humidity;BMP_temperature;BMP_pressure;BME280_temperature;BME280_humidity;BME280_pressure;Samples;Min_cycle;Max_cycle;Signal;HPM_P1;HPM_P2
2021/07/26 00:00:56;;;;;;;3.87;2.20;;;21.60;99.90;;;;;;4824109;29;20547;-76
2021/07/26 00:04:01;;;;;;;4.10;1.90;;;21.50;99.90;;;;;;4902736;23;20512;-76
2021/07/26 00:09:49;;;;;;;2.27;2.00;;;21.50;99.90;;;;;;4805306;29;20657;-76
2021/07/26 00:12:36;;;;;;;2.17;1.97;;;21.40;99.90;;;;;;4813003;29;20989;-76
2021/07/26 00:15:09;;;;;;;3.00;1.90;;;21.40;99.90;;;;;;4831877;24;20246;-76
2021/07/26 00:17:36;;;;;;;2.90;1.80;;;21.40;99.90;;;;;;4806053;29;20477;-76
2021/07/26 00:23:24;;;;;;;3.07;2.20;;;21.40;99.90;;;;;;4820653;23;20572;-76
2021/07/26 00:25:59;;;;;;;2.47;2.27;;;21.40;99.90;;;;;;4828031;29;20851;-76
2021/07/26 00:28:57;;;;;;;2.30;2.10;;;21.30;99.90;;;;;;4856051;29;20446;-76
2021/07/26 00:31:32;;;;;;;2.40;2.20;;;21.40;99.90;;;;;;4841142;29;20467;-76
2021/07/26 00:34:47;;;;;;;2.13;1.93;;;21.20;99.90;;;;;;4876910;29;20492;-76
2021/07/26 00:41:09;;;;;;;3.77;2.10;;;21.20;99.90;;;;;;4813541;29;20463;-76
2021/07/26 00:44:03;;;;;;;2.33;2.13;;;21.20;99.90;;;;;;4958584;23;20483;-76
2021/07/26 00:46:36;;;;;;;2.60;2.40;;;21.20;99.90;;;;;;4850063;29;20462;-76
2021/07/26 00:49:11;;;;;;;3.70;2.43;;;21.20;99.90;;;;;;4859872;29;20951;-76
2021/07/26 00:51:52;;;;;;;2.40;2.20;;;21.20;99.90;;;;;;4852353;29;20441;-75
2021/07/26 00:58:05;;;;;;;2.30;2.07;;;21.10;99.90;;;;;;4852556;29;20559;-76
2021/07/26 01:00:43;;;;;;;1.70;1.60;;;21.10;99.90;;;;;;4828808;29;20957;-76
2021/07/26 01:03:21;;;;;;;1.83;1.73;;;21.10;99.90;;;;;;4843809;29;20194;-76
2021/07/26 01:06:10;;;;;;;2.40;2.20;;;21.10;99.90;;;;;;4852857;29;20438;-76
2021/07/26 01:08:36;;;;;;;4.73;2.97;;;21.10;99.90;;;;;;4830591;29;20435;-76
2021/07/26 01:11:33;;;;;;;5.83;2.43;;;21.10;99.90;;;;;;4831296;29;20463;-76
2021/07/26 01:14:02;;;;;;;2.00;1.90;;;21.10;99.90;;;;;;4839381;29;20456;-76
2021/07/26 01:17:08;;;;;;;2.90;2.40;;;21.00;99.90;;;;;;4830167;29;20474;-76
2021/07/26 01:27:58;;;;;;;2.57;1.70;;;21.00;99.90;;;;;;4747088;30;20447;-76
2021/07/26 01:34:36;;;;;;;2.80;2.00;;;20.90;99.90;;;;;;4904253;23;20493;-76
2021/07/26 01:37:05;;;;;;;1.77;1.67;;;20.90;99.90;;;;;;4842731;29;20590;-76
2021/07/26 01:39:37;;;;;;;3.23;1.93;;;20.90;99.90;;;;;;4827330;29;20795;-76
2021/07/26 01:42:05;;;;;;;3.77;2.27;;;20.90;99.90;;;;;;4832311;29;20528;-76
2021/07/26 01:45:38;;;;;;;2.20;2.00;;;20.90;99.90;;;;;;4836398;29;21054;-76
2021/07/26 01:48:42;;;;;;;2.73;2.00;;;20.80;99.90;;;;;;4825122;29;20470;-76
2021/07/26 01:51:44;;;;;;;1.93;1.73;;;20.80;99.90;;;;;;4838926;29;20814;-76
2021/07/26 01:58:11;;;;;;;2.03;1.83;;;20.70;99.90;;;;;;4868792;29;20506;-76
2021/07/26 02:00:41;;;;;;;3.87;2.33;;;20.70;99.90;;;;;;4843418;29;20538;-76
2021/07/26 02:05:54;;;;;;;11.10;5.67;;;20.60;99.90;;;;;;4878962;29;20523;-76
2021/07/26 02:12:09;;;;;;;16.50;9.87;;;20.60;99.90;;;;;;4873394;29;20489;-75
2021/07/26 02:18:30;;;;;;;7.73;4.97;;;20.60;99.90;;;;;;4841875;29;20876;-76
2021/07/26 02:24:15;;;;;;;3.17;2.87;;;20.50;99.90;;;;;;4907658;23;20540;-76
2021/07/26 02:27:04;;;;;;;4.53;2.73;;;20.50;99.90;;;;;;4867693;29;20470;-76
2021/07/26 02:29:55;;;;;;;2.83;2.63;;;20.50;99.90;;;;;;4876543;29;20462;-76
2021/07/26 02:35:58;;;;;;;2.07;1.90;;;20.50;99.90;;;;;;4876405;29;20541;-76
2021/07/26 02:38:27;;;;;;;3.03;2.20;;;20.40;99.90;;;;;;4846577;29;20462;-76
2021/07/26 02:41:45;;;;;;;3.10;2.43;;;20.40;99.90;;;;;;4846650;29;20474;-75
2021/07/26 02:46:58;;;;;;;3.80;2.50;;;20.40;99.90;;;;;;4871765;29;20474;-78
2021/07/26 02:49:48;;;;;;;2.60;1.90;;;20.40;99.90;;;;;;4858151;29;20474;-78
2021/07/26 02:52:23;;;;;;;5.80;2.20;;;20.30;99.90;;;;;;4852295;29;20447;-78
2021/07/26 02:58:37;;;;;;;2.63;1.90;;;20.10;99.90;;;;;;4853147;29;20482;-79
2021/07/26 03:01:12;;;;;;;5.20;2.47;;;20.10;99.90;;;;;;4838259;29;20451;-78
2021/07/26 03:03:50;;;;;;;5.50;2.20;;;20.10;99.90;;;;;;4827406;29;20443;-78
2021/07/26 03:06:44;;;;;;;2.20;1.90;;;20.10;99.90;;;;;;4811259;29;20490;-78
2021/07/26 03:09:47;;;;;;;2.13;1.93;;;20.10;99.90;;;;;;4834848;29;20520;-78
2021/07/26 03:12:12;;;;;;;3.50;2.23;;;20.10;99.90;;;;;;4830074;29;20441;-78
2021/07/26 03:14:41;;;;;;;3.87;2.23;;;20.10;99.90;;;;;;4824147;29;20453;-78
2021/07/26 03:17:29;;;;;;;2.70;2.50;;;20.10;99.90;;;;;;4832349;29;20727;-78
2021/07/26 03:20:07;;;;;;;4.17;2.47;;;20.10;99.90;;;;;;4828686;29;20458;-78
2021/07/26 03:22:52;;;;;;;2.40;2.20;;;20.10;99.90;;;;;;4835257;29;20447;-78
2021/07/26 03:28:58;;;;;;;2.50;2.10;;;20.00;99.90;;;;;;4859039;29;20430;-78
2021/07/26 03:35:29;;;;;;;2.80;1.87;;;19.90;99.90;;;;;;5031010;23;20506;-78
2021/07/26 03:41:44;;;;;;;2.43;2.17;;;19.90;99.90;;;;;;4877801;29;20504;-78
2021/07/26 03:44:13;;;;;;;2.40;2.20;;;19.80;99.90;;;;;;4866052;23;20506;-78
2021/07/26 03:46:39;;;;;;;3.90;2.50;;;19.90;99.90;;;;;;4826233;29;20826;-78
2021/07/26 04:04:23;;;;;;;2.90;2.40;;;19.70;99.90;;;;;;5056399;23;20490;-77
2021/07/26 04:08:01;;;;;;;2.33;2.07;;;19.70;99.90;;;;;;4842392;29;20896;-76
2021/07/26 04:14:38;;;;;;;2.67;2.47;;;19.70;99.90;;;;;;4806686;29;20543;-77
2021/07/26 04:17:09;;;;;;;4.73;2.33;;;19.70;99.90;;;;;;4841069;29;20937;-77
2021/07/26 04:19:58;;;;;;;3.30;1.80;;;19.60;99.90;;;;;;4840967;29;20482;-77
2021/07/26 04:22:39;;;;;;;2.90;2.50;;;19.60;99.90;;;;;;4813946;29;20941;-77
2021/07/26 04:25:29;;;;;;;2.13;1.93;;;19.60;99.90;;;;;;4875421;23;20831;-77
2021/07/26 04:31:55;;;;;;;2.13;2.00;;;19.60;99.90;;;;;;4876879;29;20883;-77
2021/07/26 04:37:45;;;;;;;2.47;2.17;;;19.50;99.90;;;;;;4852444;29;20490;-77
2021/07/26 04:40:17;;;;;;;2.50;2.30;;;19.50;99.90;;;;;;4846172;29;20995;-77
2021/07/26 04:49:47;;;;;;;2.10;1.90;;;19.50;99.90;;;;;;4878222;29;20469;-77
2021/07/26 04:52:26;;;;;;;3.47;2.47;;;19.50;99.90;;;;;;4869474;29;20919;-76
2021/07/26 05:10:30;;;;;;;2.40;1.93;;;19.50;99.90;;;;;;4861536;29;21027;-76
2021/07/26 05:24:21;;;;;;;2.77;1.77;;;19.50;99.90;;;;;;4869667;29;20565;-77
2021/07/26 05:31:15;;;;;;;2.80;2.27;;;19.50;99.90;;;;;;4859647;29;20439;-77
2021/07/26 05:33:59;;;;;;;2.40;2.20;;;19.60;99.90;;;;;;4814361;29;20491;-77
2021/07/26 05:36:37;;;;;;;3.20;2.03;;;19.60;99.90;;;;;;4831654;29;20458;-77
2021/07/26 05:39:06;;;;;;;3.10;2.80;;;19.60;99.90;;;;;;4812845;29;20621;-77
2021/07/26 05:41:32;;;;;;;3.30;3.00;;;19.60;99.90;;;;;;4824830;29;20982;-79
2021/07/26 05:48:26;;;;;;;2.63;2.43;;;19.70;99.90;;;;;;4821802;29;20283;-79
2021/07/26 05:50:55;;;;;;;2.43;2.17;;;19.70;99.90;;;;;;4832015;29;20933;-78
2021/07/26 05:54:39;;;;;;;3.57;2.87;;;19.80;99.90;;;;;;4913679;23;21030;-79
2021/07/26 06:01:22;;;;;;;8.40;2.63;;;19.90;99.90;;;;;;4901281;29;20563;-79
2021/07/26 06:07:43;;;;;;;2.40;2.20;;;19.90;99.90;;;;;;4859629;29;20867;-79
2021/07/26 06:14:21;;;;;;;2.30;2.10;;;20.00;99.90;;;;;;4862958;23;20574;-79
2021/07/26 06:20:38;;;;;;;3.73;2.30;;;20.10;99.90;;;;;;4835948;29;20448;-79
2021/07/26 06:30:04;;;;;;;3.20;2.67;;;20.40;99.90;;;;;;4863933;29;20458;-79
2021/07/26 06:32:39;;;;;;;3.47;3.17;;;20.50;99.90;;;;;;4863486;29;20468;-79
2021/07/26 06:35:24;;;;;;;3.23;2.93;;;20.50;99.90;;;;;;4829607;29;20548;-79
2021/07/26 06:37:50;;;;;;;2.90;2.70;;;20.50;99.90;;;;;;4840819;29;20710;-78
2021/07/26 16:20:48;;;;;;;3.13;2.93;;;28.30;91.50;;;;;;5747689;23;20297;-72
2021/07/26 16:23:14;;;;;;;3.78;3.47;;;28.20;91.90;;;;;;4834785;29;20320;-71
2021/07/26 16:25:41;;;;;;;3.53;3.20;;;28.10;92.10;;;;;;4809571;29;20226;-71
2021/07/26 16:28:07;;;;;;;4.10;3.33;;;28.10;92.80;;;;;;4826321;29;20273;-72
2021/07/26 16:49:27;;;;;;;3.30;2.93;;;28.10;92.70;;;;;;5890600;23;20536;-75
2021/07/26 16:51:55;;;;;;;2.97;2.77;;;28.10;92.80;;;;;;4833149;29;20309;-74
2021/07/26 16:54:20;;;;;;;3.00;2.80;;;28.10;92.80;;;;;;4809033;29;20264;-74
2021/07/26 16:56:46;;;;;;;3.43;2.83;;;28.10;93.00;;;;;;4808619;29;20303;-74
2021/07/26 16:59:12;;;;;;;3.73;3.00;;;28.10;93.10;;;;;;4818981;29;20651;-75
2021/07/26 17:01:38;;;;;;;3.03;2.73;;;28.10;93.00;;;;;;4840625;29;20290;-74
2021/07/26 17:04:06;;;;;;;3.03;2.83;;;28.10;92.90;;;;;;4823651;29;20294;-74
2021/07/26 17:06:32;;;;;;;3.30;3.10;;;28.10;93.10;;;;;;4810180;29;20309;-74
2021/07/26 17:09:00;;;;;;;3.80;3.13;;;28.00;93.00;;;;;;4825919;29;20227;-75
2021/07/26 17:11:27;;;;;;;3.27;2.87;;;28.00;93.00;;;;;;4831386;29;20463;-74
2021/07/26 17:13:54;;;;;;;2.80;2.60;;;27.80;93.00;;;;;;4826281;29;20463;-75
2021/07/26 17:16:19;;;;;;;2.70;2.50;;;27.80;92.80;;;;;;4851125;29;20496;-72
2021/07/26 17:18:45;;;;;;;3.58;2.72;;;27.80;92.80;;;;;;4822220;29;20483;-74
2021/07/26 17:21:11;;;;;;;3.53;3.10;;;27.70;92.30;;;;;;4791744;29;20230;-74
2021/07/26 17:23:37;;;;;;;3.10;2.90;;;27.60;92.50;;;;;;4837439;29;20233;-74
2021/07/26 17:26:03;;;;;;;3.60;3.10;;;27.60;92.80;;;;;;4847046;29;21002;-74
2021/07/26 17:28:31;;;;;;;3.40;3.10;;;27.50;92.70;;;;;;4805302;29;20302;-74
2021/07/26 17:31:00;;;;;;;3.30;3.00;;;27.40;92.50;;;;;;4820917;29;20222;-72
2021/07/26 17:33:26;;;;;;;7.33;2.73;;;27.40;92.80;;;;;;4834714;29;20366;-74
2021/07/26 17:35:52;;;;;;;3.10;2.80;;;27.30;92.80;;;;;;4851773;29;20479;-74
2021/07/26 17:38:18;;;;;;;3.67;3.37;;;27.30;93.00;;;;;;4818355;29;20493;-74
2021/07/26 17:40:43;;;;;;;3.10;2.90;;;27.20;93.30;;;;;;4831354;29;20976;-74
2021/07/26 17:43:09;;;;;;;3.60;3.20;;;27.20;93.20;;;;;;4830143;29;20527;-74
2021/07/26 17:45:35;;;;;;;3.40;3.03;;;27.10;93.30;;;;;;4809186;29;20277;-72
2021/07/26 17:48:01;;;;;;;3.30;3.10;;;27.00;93.20;;;;;;4822175;29;20227;-72
2021/07/26 17:50:29;;;;;;;3.33;3.03;;;27.00;93.50;;;;;;4818601;29;20575;-72
2021/07/26 17:52:55;;;;;;;3.60;3.30;;;26.90;93.50;;;;;;4809274;29;20226;-72
2021/07/26 17:55:21;;;;;;;3.40;3.10;;;26.90;93.60;;;;;;4834344;29;20467;-72
2021/07/26 17:57:46;;;;;;;3.57;3.27;;;26.90;93.40;;;;;;4823961;29;20635;-72
2021/07/26 18:00:12;;;;;;;3.17;2.87;;;26.80;93.40;;;;;;4831440;29;20222;-74
2021/07/26 18:02:38;;;;;;;3.07;2.70;;;26.70;93.50;;;;;;4822952;29;20226;-74
2021/07/26 18:05:07;;;;;;;3.00;2.77;;;26.70;93.60;;;;;;4827765;29;20480;-74
2021/07/26 18:07:42;;;;;;;3.17;2.93;;;26.60;93.80;;;;;;4814841;29;20290;-74
2021/07/26 18:10:08;;;;;;;3.30;3.00;;;26.60;93.80;;;;;;4826708;29;20462;-74
2021/07/26 18:12:36;;;;;;;3.70;3.40;;;26.50;94.00;;;;;;4815832;29;20971;-74
2021/07/26 18:15:03;;;;;;;3.27;3.07;;;26.50;94.10;;;;;;4843798;29;20517;-74
2021/07/26 18:17:28;;;;;;;3.90;3.57;;;26.50;94.20;;;;;;4828764;29;20459;-74
2021/07/26 18:19:54;;;;;;;4.07;3.40;;;26.40;94.30;;;;;;4818084;29;20490;-74
2021/07/26 18:22:19;;;;;;;3.50;3.20;;;26.40;94.40;;;;;;4815954;29;20308;-74
2021/07/26 18:24:45;;;;;;;3.80;3.03;;;26.30;94.40;;;;;;4816630;29;20227;-74
2021/07/26 18:27:11;;;;;;;3.07;2.87;;;26.30;94.40;;;;;;4862002;29;20218;-74
2021/07/26 18:29:38;;;;;;;3.43;3.13;;;26.20;94.50;;;;;;4814417;29;20223;-74
2021/07/26 18:32:04;;;;;;;3.50;3.20;;;26.20;94.50;;;;;;4836496;29;20359;-74
2021/07/26 18:34:30;;;;;;;2.83;2.63;;;26.10;94.50;;;;;;4847554;29;20848;-74
2021/07/26 18:36:56;;;;;;;4.00;3.40;;;26.10;94.60;;;;;;4820255;29;20463;-74
2021/07/26 18:39:21;;;;;;;3.27;2.80;;;26.00;94.60;;;;;;4810576;29;20883;-73
2021/07/26 18:41:47;;;;;;;3.17;2.87;;;26.00;94.80;;;;;;4823961;29;20827;-72
2021/07/26 18:44:14;;;;;;;4.07;3.67;;;26.00;95.00;;;;;;4806910;29;20278;-73
2021/07/26 18:46:40;;;;;;;3.17;2.87;;;26.00;95.10;;;;;;4864485;29;20265;-73
2021/07/26 18:49:06;;;;;;;3.40;3.10;;;26.00;95.10;;;;;;4831205;29;20487;-73
2021/07/26 18:51:32;;;;;;;4.00;3.60;;;26.00;95.30;;;;;;4845345;29;20474;-73
2021/07/26 18:53:58;;;;;;;5.40;3.70;;;26.00;95.30;;;;;;4856202;29;20986;-73
2021/07/26 18:56:24;;;;;;;3.43;2.70;;;26.00;95.30;;;;;;4842646;29;20282;-73
2021/07/26 18:58:49;;;;;;;3.43;3.13;;;25.90;95.80;;;;;;4820170;29;20278;-73
2021/07/26 19:01:15;;;;;;;2.70;2.50;;;25.80;95.50;;;;;;4833951;29;20308;-73
2021/07/26 19:03:41;;;;;;;3.27;2.80;;;25.80;95.60;;;;;;4801617;29;20237;-73
2021/07/26 19:06:06;;;;;;;3.57;3.10;;;25.70;95.70;;;;;;4820301;29;20218;-75
2021/07/26 19:08:32;;;;;;;3.37;3.00;;;25.70;95.70;;;;;;4817653;29;20218;-75
2021/07/26 19:10:59;;;;;;;3.30;3.00;;;25.60;95.90;;;;;;4819887;29;20815;-75
2021/07/26 19:13:25;;;;;;;3.67;3.37;;;25.60;96.00;;;;;;4836634;29;20226;-74
2021/07/26 19:15:50;;;;;;;3.07;2.77;;;25.60;96.10;;;;;;4816032;29;20504;-75
2021/07/26 19:18:16;;;;;;;2.90;2.70;;;25.60;96.30;;;;;;4805176;29;20233;-76
2021/07/26 19:20:42;;;;;;;3.00;2.80;;;25.60;96.30;;;;;;4822368;29;20266;-75
2021/07/26 19:23:14;;;;;;;2.90;2.70;;;25.60;96.30;;;;;;4836321;29;20337;-75
2021/07/26 19:25:40;;;;;;;3.20;2.90;;;25.50;96.50;;;;;;4842590;29;20229;-75
2021/07/26 19:28:06;;;;;;;3.33;3.03;;;25.50;96.60;;;;;;4838897;29;20478;-73
2021/07/26 19:30:32;;;;;;;3.03;2.60;;;25.40;96.80;;;;;;4816817;29;20463;-72
2021/07/26 19:32:58;;;;;;;4.10;3.70;;;25.40;96.90;;;;;;4833203;29;20222;-73
2021/07/26 19:35:24;;;;;;;3.97;2.73;;;25.30;96.90;;;;;;4813597;29;20459;-73
2021/07/26 19:37:50;;;;;;;5.30;3.13;;;25.30;97.00;;;;;;4832657;29;20872;-73
2021/07/26 19:40:16;;;;;;;3.83;3.53;;;25.30;97.10;;;;;;4834448;29;20231;-73
2021/07/26 19:42:42;;;;;;;4.27;3.70;;;25.20;97.20;;;;;;4852058;29;20253;-73
2021/07/26 19:45:08;;;;;;;3.37;3.07;;;25.20;97.40;;;;;;4852084;29;20462;-73
2021/07/26 19:47:37;;;;;;;2.87;2.67;;;25.20;97.40;;;;;;4822448;29;20463;-73
2021/07/26 19:50:04;;;;;;;3.43;2.90;;;25.20;97.60;;;;;;4847415;29;20595;-73
2021/07/26 19:52:30;;;;;;;5.53;4.50;;;25.20;97.50;;;;;;4815583;29;20917;-73
2021/07/26 19:54:56;;;;;;;4.10;3.70;;;25.10;97.50;;;;;;4834462;29;20580;-73
2021/07/26 19:57:22;;;;;;;4.57;4.17;;;25.10;97.60;;;;;;4821436;29;20232;-73
2021/07/26 19:59:48;;;;;;;3.80;3.00;;;25.10;97.80;;;;;;4810934;29;20990;-73
2021/07/26 20:02:13;;;;;;;3.67;3.37;;;25.00;97.80;;;;;;4819138;29;20306;-73
2021/07/26 20:04:39;;;;;;;5.33;3.70;;;25.00;97.80;;;;;;4836278;29;20241;-73
2021/07/26 20:07:05;;;;;;;4.20;3.60;;;25.00;98.00;;;;;;4799311;29;20538;-73
2021/07/26 20:09:32;;;;;;;3.97;3.57;;;24.90;98.10;;;;;;4820698;29;20237;-72
2021/07/26 20:11:58;;;;;;;3.73;3.47;;;24.90;98.50;;;;;;4820861;29;20241;-72
2021/07/26 20:14:23;;;;;;;3.53;3.10;;;24.80;98.20;;;;;;4834395;29;20557;-75
2021/07/26 20:16:55;;;;;;;7.80;3.40;;;24.80;98.30;;;;;;4835378;29;20225;-73
2021/07/26 20:19:21;;;;;;;3.37;2.80;;;24.90;98.40;;;;;;4842113;29;20226;-72
2021/07/26 20:21:47;;;;;;;3.20;2.90;;;24.90;98.40;;;;;;4808077;29;20532;-72
2021/07/26 20:24:15;;;;;;;5.63;3.30;;;24.90;98.40;;;;;;4822175;29;20309;-72
2021/07/26 20:26:41;;;;;;;4.20;2.80;;;24.90;98.50;;;;;;4819464;29;20250;-72
2021/07/26 20:29:07;;;;;;;3.67;3.10;;;24.70;99.00;;;;;;4831718;29;20503;-72
2021/07/26 20:31:33;;;;;;;3.70;2.90;;;24.70;98.80;;;;;;4839758;29;20912;-72
2021/07/26 20:33:59;;;;;;;5.10;4.50;;;24.60;98.80;;;;;;4815036;29;20225;-73
2021/07/26 20:36:26;;;;;;;4.23;3.67;;;24.60;98.90;;;;;;4804868;29;20306;-72
2021/07/26 20:38:53;;;;;;;3.57;3.20;;;24.60;99.00;;;;;;4824623;29;20225;-72
2021/07/26 20:41:19;;;;;;;6.10;2.93;;;24.50;99.00;;;;;;4823980;29;20499;-72
2021/07/26 20:43:45;;;;;;;8.00;3.13;;;24.40;99.00;;;;;;4819368;29;20463;-73
2021/07/26 20:46:12;;;;;;;4.23;3.67;;;24.40;99.10;;;;;;4828526;29;20246;-74
2021/07/26 20:48:38;;;;;;;4.23;3.87;;;24.40;99.10;;;;;;4820239;29;20230;-72
2021/07/26 20:51:04;;;;;;;3.70;3.03;;;24.40;99.20;;;;;;4826987;29;20920;-72
2021/07/26 20:53:30;;;;;;;4.37;3.20;;;24.30;99.20;;;;;;4826967;29;20314;-74
2021/07/26 20:55:56;;;;;;;3.60;3.30;;;24.20;99.20;;;;;;4804893;29;20877;-72
2021/07/26 20:58:21;;;;;;;6.50;3.33;;;24.20;99.30;;;;;;4814456;29;20469;-72
2021/07/26 21:00:47;;;;;;;5.13;3.50;;;24.20;99.30;;;;;;4819131;29;20278;-72
2021/07/26 21:03:13;;;;;;;3.37;3.07;;;24.10;99.40;;;;;;4794160;29;20229;-72
2021/07/26 21:05:39;;;;;;;4.20;3.77;;;24.10;99.50;;;;;;4810471;29;20557;-73
2021/07/26 21:08:12;;;;;;;3.37;3.07;;;24.00;99.60;;;;;;4843851;29;20694;-73
2021/07/26 21:10:38;;;;;;;5.60;3.30;;;24.10;99.70;;;;;;4821845;29;20993;-73
2021/07/26 21:13:04;;;;;;;3.87;3.43;;;24.10;99.70;;;;;;4804025;29;20455;-72
2021/07/26 21:15:35;;;;;;;4.93;3.40;;;24.10;99.70;;;;;;4805381;29;20622;-73
2021/07/26 21:18:00;;;;;;;4.13;3.27;;;24.10;99.70;;;;;;4818740;29;20218;-73
2021/07/26 21:20:26;;;;;;;5.30;2.87;;;24.10;99.70;;;;;;4812091;29;20471;-73
2021/07/26 21:22:52;;;;;;;5.23;4.00;;;24.10;99.70;;;;;;4853537;29;20232;-73
2021/07/26 21:25:18;;;;;;;3.63;3.33;;;24.10;99.70;;;;;;4824514;29;20217;-73
2021/07/26 21:27:44;;;;;;;3.20;3.00;;;24.10;99.80;;;;;;4843732;29;20248;-73
2021/07/26 21:30:15;;;;;;;10.27;3.60;;;24.10;99.80;;;;;;4812814;29;20222;-72
2021/07/26 21:32:41;;;;;;;3.37;3.07;;;24.10;99.80;;;;;;4860672;29;20479;-72
2021/07/26 21:35:07;;;;;;;3.70;3.40;;;24.10;99.70;;;;;;4817873;29;20470;-73
2021/07/26 21:37:33;;;;;;;3.63;3.33;;;24.10;99.80;;;;;;4828555;29;20526;-73
2021/07/26 21:39:59;;;;;;;4.10;3.70;;;24.10;99.90;;;;;;4843398;29;20542;-73
2021/07/26 21:42:24;;;;;;;4.17;3.30;;;24.00;99.90;;;;;;4843254;29;20229;-73
2021/07/26 21:44:50;;;;;;;10.30;3.50;;;24.00;99.90;;;;;;4813794;29;20221;-72
2021/07/26 21:47:18;;;;;;;3.80;3.10;;;24.00;99.90;;;;;;4827582;29;20257;-73
2021/07/26 21:49:45;;;;;;;3.40;3.10;;;23.90;99.90;;;;;;4819719;29;20475;-73
2021/07/26 21:52:10;;;;;;;3.80;3.40;;;23.80;99.90;;;;;;4822269;29;20538;-73
2021/07/26 21:54:36;;;;;;;3.40;3.10;;;23.70;99.90;;;;;;4837565;29;20619;-73
2021/07/26 21:57:02;;;;;;;4.10;3.17;;;23.70;99.90;;;;;;4827898;29;20222;-72
2021/07/26 21:59:28;;;;;;;4.40;4.03;;;23.60;99.90;;;;;;4851114;29;20654;-72
2021/07/26 22:01:54;;;;;;;4.00;3.17;;;23.50;99.90;;;;;;4825286;29;20473;-73
2021/07/26 22:04:19;;;;;;;3.20;2.90;;;23.40;99.90;;;;;;4826682;29;20229;-72
2021/07/26 22:06:45;;;;;;;3.50;3.20;;;23.30;99.90;;;;;;4819486;29;20601;-73
2021/07/26 22:09:11;;;;;;;4.43;3.20;;;23.10;99.90;;;;;;4827925;29;20662;-74
2021/07/26 22:11:36;;;;;;;4.17;3.77;;;23.00;99.90;;;;;;4858782;29;20222;-72
2021/07/26 22:14:02;;;;;;;3.53;3.03;;;22.90;99.90;;;;;;4839510;29;20756;-72
2021/07/26 22:16:28;;;;;;;5.30;3.70;;;22.80;99.90;;;;;;4840501;29;20258;-72
2021/07/26 22:18:54;;;;;;;3.77;3.00;;;22.80;99.90;;;;;;4820645;29;20495;-72
2021/07/26 22:21:21;;;;;;;5.93;3.27;;;22.70;99.90;;;;;;4825627;29;20294;-73
2021/07/26 22:23:51;;;;;;;3.90;3.50;;;22.60;99.90;;;;;;4828320;29;20229;-72
2021/07/26 22:26:17;;;;;;;3.30;3.00;;;22.50;99.90;;;;;;4812950;29;20495;-72
2021/07/26 22:28:43;;;;;;;5.03;3.90;;;22.40;99.90;;;;;;4843326;29;20467;-72
2021/07/26 22:31:09;;;;;;;3.13;2.93;;;22.30;99.90;;;;;;4827326;29;20463;-72
2021/07/26 22:33:36;;;;;;;5.10;3.23;;;22.20;99.90;;;;;;4824926;29;20464;-73
2021/07/26 22:36:02;;;;;;;2.87;2.63;;;22.20;99.90;;;;;;4832586;29;20475;-73
2021/07/26 22:38:28;;;;;;;3.13;2.87;;;22.20;99.90;;;;;;4835908;29;20462;-73
2021/07/26 22:40:54;;;;;;;3.30;3.00;;;22.10;99.90;;;;;;4835302;29;20471;-72
2021/07/26 22:43:20;;;;;;;3.20;2.90;;;22.10;99.90;;;;;;4827625;29;20975;-71
2021/07/26 22:45:46;;;;;;;3.23;2.93;;;22.00;99.90;;;;;;4824972;29;20483;-72
2021/07/26 22:48:12;;;;;;;4.53;3.23;;;22.00;99.90;;;;;;4824581;29;20223;-71
2021/07/26 22:50:38;;;;;;;3.20;2.80;;;21.90;99.90;;;;;;4823135;29;20235;-72
2021/07/26 22:53:04;;;;;;;3.33;3.00;;;21.90;99.90;;;;;;4824431;29;20335;-71
2021/07/26 22:55:30;;;;;;;3.90;3.50;;;21.90;99.90;;;;;;4814656;29;20590;-72
2021/07/26 22:57:55;;;;;;;3.70;2.93;;;21.90;99.90;;;;;;4840620;29;20474;-72
2021/07/26 23:00:24;;;;;;;3.90;3.37;;;21.80;99.90;;;;;;4811659;29;20235;-71
2021/07/26 23:02:50;;;;;;;2.77;2.57;;;21.90;99.90;;;;;;4813320;29;20351;-71
2021/07/26 23:05:16;;;;;;;3.23;2.93;;;21.90;99.90;;;;;;4842378;29;20487;-71
2021/07/26 23:07:42;;;;;;;5.50;4.10;;;21.90;99.90;;;;;;4826844;29;21457;-71
2021/07/26 23:10:08;;;;;;;4.37;3.97;;;21.90;99.90;;;;;;4831938;29;20219;-72
2021/07/26 23:12:34;;;;;;;3.67;2.70;;;21.90;99.90;;;;;;4838220;29;20226;-71
2021/07/26 23:14:59;;;;;;;2.80;2.57;;;22.00;99.90;;;;;;4832195;29;20475;-73
2021/07/26 23:17:26;;;;;;;4.20;3.50;;;22.10;99.90;;;;;;4842965;29;20214;-72
2021/07/26 23:19:52;;;;;;;3.10;2.77;;;22.10;99.90;;;;;;4809158;29;20226;-72
2021/07/26 23:22:17;;;;;;;3.03;2.83;;;22.10;99.90;;;;;;4837947;29;20463;-72
2021/07/26 23:24:43;;;;;;;3.67;3.20;;;22.20;99.90;;;;;;4824398;29;20971;-72
2021/07/26 23:27:09;;;;;;;2.50;2.30;;;22.10;99.90;;;;;;4828513;29;20568;-72
2021/07/26 23:29:35;;;;;;;3.90;3.37;;;22.10;99.90;;;;;;4826994;29;20262;-71
2021/07/26 23:32:01;;;;;;;3.47;3.17;;;22.20;99.90;;;;;;4827681;29;20226;-72
2021/07/26 23:34:27;;;;;;;3.80;3.07;;;22.20;99.90;;;;;;4826422;29;21039;-72
2021/07/26 23:36:52;;;;;;;3.70;3.40;;;22.20;99.90;;;;;;4812145;29;20236;-72
2021/07/26 23:39:19;;;;;;;3.23;2.93;;;22.20;99.90;;;;;;4836340;29;20230;-72
2021/07/26 23:41:44;;;;;;;3.10;2.90;;;22.10;99.90;;;;;;4840418;29;20254;-72
2021/07/26 23:44:11;;;;;;;3.83;3.27;;;22.10;99.90;;;;;;4823779;29;20496;-72
2021/07/26 23:46:37;;;;;;;3.83;3.40;;;22.10;99.90;;;;;;4820271;29;20290;-72
2021/07/26 23:49:03;;;;;;;2.87;2.67;;;22.10;99.90;;;;;;4811003;29;20482;-72
2021/07/26 23:51:29;;;;;;;2.77;2.57;;;22.10;99.90;;;;;;4823707;29;20471;-71
2021/07/26 23:53:55;;;;;;;3.27;3.00;;;22.10;99.90;;;;;;4835052;29;20550;-72
2021/07/26 23:56:21;;;;;;;3.03;2.73;;;22.10;99.90;;;;;;4806343;29;20588;-72
2021/07/26 23:58:47;;;;;;;3.70;3.07;;;22.10;99.90;;;;;;4827469;29;20254;-71
